Decoded Metar for YSNF (NORFOLK ISLAND in AUSTRALIA) (IATA:NLK) | Meteo·Mobile Aviation Weather
aviador You're here:

YSNF Decoded Metar

NORFOLK ISLAND in AUSTRALIA
Report Time2019-01-18 13:00:00
UTC Time2019-01-18 13:27:32
Flight Rules mvfr MVFR
Wind120° at 07 kt
W.Decomp.*RWY 11: 7.0 kt HW 0.6 kt LCW
RWY 04: 3.0 kt HW 6.3 kt RCW
W.Rank120° ranks 7
Current wind is below 120° avg. (8.9)
Visibility9999 m
Phenomena:N/A
Clouds:Broken 028 Hf
Broken 032 Hf
Expected CloudBase > 2,000 ft AGL from Temp-Dew spread
Ceiling2,800 ft
Temp21°C (ISA +7)
Dew Point16°C (73% RH)
AAT20.5°C
QNH1018 hPa
Density Alt1,217 ft
Elevation358 ft
Report Wrong Elevation
Raw Report
METAR YSNF 181300Z AUTO 12007KT 9999 // BKN028 BKN032 21/16 Q1018=

Extra information for YSNF:More info

Metar Taf Metar & Taf Last 4 Metars F.Rules Stats Wind Profile Meteogram Temp Stats Airport Information Weather charts Add Link Nearby VenuesMetar ALERT Operation Metar Decoded Social comments